首页
METAR-TAF:

METAR-TAF

机场 :

阿塔蒂尔克国际机场

伊斯坦布尔 阿塔土克, 土耳其

纬度: 40-58N, 经度: 028-49E, 海拔: 48米

当前天气观测

该预报发布于40分钟前的18:50 UTC
风速12节,风向
温度 10°C
湿度 82%
气压 1020 hPa
能见度10公里或以上
少量云层高于2000英尺, 积雨云.
多云层高于3200英尺
小阵雨

METAR: LTBA 151850Z 36012KT 9999 -SHRA FEW020CB BKN032 10/07 Q1020 NOSIG RMK RWY17L 02010KT 350V050 RWY05 34012KT RWY23 01011KT 340V040

时间: 22:30 (19:30 UTC)

预报

该预报发布于2小时和50分钟前的16:40 UTC
预报有效从15日的 18点(UTC)到 16日的 24点(UTC)
风速13节,风向北转东北
能见度10公里或以上
多云层高于3300英尺
短暂存在
从 15日的 18点(UTC)到 15日的 22点(UTC)
少量云层高于1500英尺, 积雨云.
多云层高于2500英尺
小阵雨
成为
从 15日的 22点(UTC)到 16日的 02点(UTC)
小阵雨
成为
从 16日的 06点(UTC)到 16日的 10点(UTC)
风速15节,风向,有时为25节阵风
几率 30% :
短暂存在
从 16日的 10点(UTC)到 16日的 14点(UTC)
能見度: 4000
散云层高于1800英尺, 积雨云.
多云层高于2200英尺
阵雨
成为
从 16日的 15点(UTC)到 16日的 18点(UTC)
散云层高于3500英尺
多云层高于9000英尺

TAF: LTBA 151640Z 1518/1624 02013KT 9999 BKN033 TEMPO 1518/1522 -SHRA FEW015CB BKN025 BECMG 1522/1602 -SHRA BECMG 1606/1610 01015G25KT PROB30 TEMPO 1610/1614 4000 SHRA SCT018CB BKN022 BECMG 1615/1618 SCT035 BKN090

超过4000个机场的气象观测和天气预报(METAR&TAF报告)。

可查询的气象台以黄色和红色小点在地图上表示。

将鼠标移到小点上方,可查看气象台名称。

然后点击查看天气观测和预报。

如需切换地图:点击带黑十字的绿色按钮放大地图;点击带横线的绿色按钮缩小地图;或者点击绿色箭头查看邻近地区的地图。


METAR-TAF: